Latest Weather Observations for Scotts Peak

IDT60801

Issued at 8:03 pm EDT Wednesday 28 January 2015 (issued every 30 minutes, with the page automatically refreshed every 10 minutes)

About weather observations | Map of weather stations | Latest weather observations for TAS | Other Formats
Station Details ID: 097083 Name: SCOTTS PEAK DAM Lat: -43.04 Lon: 146.27 Height: 408.0 m
Data from the previous 72 hours. | See also: Recent months at Scotts Peak
Date/Time
EDT
Temp
°C
App
Temp
°C
Dew
Point
Rel
Hum
%
Delta-T
°C
Wind Press
QNH
hPa
Press
MSL
hPa
Rain
since 9 am
mm
Dir
 
Spd
km/h
Gust
km/h
Spd
kts
Gust
kts
28/08:00pm 11.6 5.2 3.4 57 3.7 ESE 26 33 14 18 - - 0.0
28/07:30pm 12.5 6.4 2.9 52 4.3 ESE 24 37 13 20 - - 0.0
28/07:00pm 13.3 6.3 4.2 54 4.2 ESE 30 39 16 21 - - 0.0
28/06:30pm 14.6 8.9 5.1 53 4.6 E 24 35 13 19 - - 0.0
28/06:00pm 14.5 7.9 4.2 50 4.8 ESE 28 39 15 21 - - 0.0
28/05:30pm 14.2 9.2 4.8 53 4.5 SE 20 35 11 19 - - 0.0
28/05:00pm 15.3 9.2 4.7 49 5.1 E 26 35 14 19 - - 0.0
28/04:30pm 15.7 10.7 4.7 48 5.3 SE 20 32 11 17 - - 0.0
28/04:00pm 14.7 8.5 4.1 49 5.0 SE 26 41 14 22 - - 0.0
28/03:30pm 15.6 9.0 4.3 47 5.4 ESE 28 39 15 21 - - 0.0
28/03:00pm 15.7 10.7 4.7 48 5.3 SE 20 33 11 18 - - 0.0
28/02:30pm 15.2 9.2 3.4 45 5.5 SE 24 41 13 22 - - 0.0
28/02:00pm 14.9 9.5 4.6 50 4.9 SE 22 33 12 18 - - 0.0
28/01:30pm 14.9 9.6 4.9 51 4.8 SE 22 35 12 19 - - 0.0
28/01:00pm 15.1 9.5 5.6 53 4.6 ESE 24 39 13 21 - - 0.0
28/12:30pm 13.6 9.2 5.0 56 4.1 SSE 17 24 9 13 - - 0.0
28/12:00pm 13.6 8.8 4.7 55 4.2 SE 19 24 10 13 - - 0.0
28/11:30am 12.3 7.5 4.8 60 3.5 ESE 19 28 10 15 - - 0.0
28/11:00am 12.1 8.2 5.3 63 3.2 SE 15 22 8 12 - - 0.0
28/10:30am 10.8 6.2 5.6 70 2.5 SE 19 24 10 13 - - 0.0
28/10:00am 10.9 6.2 5.2 68 2.7 SE 19 24 10 13 - - 0.0
28/09:30am 10.7 6.7 5.0 68 2.6 SE 15 20 8 11 - - 0.0
28/09:00am 11.3 7.0 5.4 67 2.8 ESE 17 22 9 12 - - 0.6
28/08:30am 10.3 7.9 6.8 79 1.7 SE 9 13 5 7 - - 0.6
28/08:00am 8.9 6.3 6.0 82 1.4 SSE 9 13 5 7 - - 0.6
28/07:30am 8.3 5.7 5.9 85 1.1 SE 9 11 5 6 - - 0.6
28/07:00am 8.0 5.0 6.0 87 0.9 SSE 11 17 6 9 - - 0.6
28/06:30am 7.4 4.3 5.4 87 0.9 SSE 11 15 6 8 - - 0.6
28/06:00am 7.0 3.8 5.2 88 0.8 SE 11 15 6 8 - - 0.6
28/05:30am 7.1 3.5 4.9 86 1.0 SSE 13 15 7 8 - - 0.6
28/05:00am 6.5 3.1 4.2 85 1.0 SE 11 13 6 7 - - 0.6
28/04:30am 7.0 3.6 4.1 82 1.3 SSE 11 11 6 6 - - 0.6
28/04:00am 7.0 4.2 5.0 87 0.9 SE 9 11 5 6 - - 0.6
28/03:30am 7.1 4.3 5.3 88 0.8 SSE 9 11 5 6 - - 0.6
28/03:00am 6.6 3.4 5.2 91 0.6 SSE 11 13 6 7 - - 0.6
28/02:30am 6.6 3.4 5.1 90 0.7 SE 11 15 6 8 - - 0.6
28/02:00am 6.8 4.0 5.0 88 0.8 SE 9 13 5 7 - - 0.6
28/01:30am 6.8 4.0 5.0 88 0.8 SE 9 11 5 6 - - 0.6
28/01:00am 7.0 4.2 5.2 88 0.8 SE 9 11 5 6 - - 0.6
28/12:30am 7.4 4.6 5.2 86 1.0 SE 9 11 5 6 - - 0.6
28/12:00am 7.2 4.0 5.2 87 0.9 SE 11 15 6 8 - - 0.6
 
Date/Time
EDT
Temp
°C
App
Temp
°C
Dew
Point
Rel
Hum
%
Delta-T
°C
Wind Press
QNH
hPa
Press
MSL
hPa
Rain
since 9 am
mm
Dir
 
Spd
km/h
Gust
km/h
Spd
kts
Gust
kts
27/11:30pm 7.7 5.0 5.7 87 0.9 SE 9 11 5 6 - - 0.6
27/11:00pm 7.8 5.1 5.6 86 1.0 SSE 9 11 5 6 - - 0.6
27/10:30pm 8.3 5.3 5.9 85 1.1 S 11 13 6 7 - - 0.6
27/10:00pm 8.5 6.3 6.0 84 1.2 S 7 11 4 6 - - 0.6
27/09:30pm 8.4 5.0 6.0 85 1.1 SSW 13 19 7 10 - - 0.6
27/09:00pm 8.8 5.4 5.7 81 1.4 SSW 13 19 7 10 - - 0.6
27/08:30pm 9.4 6.1 6.5 82 1.4 S 13 17 7 9 - - 0.6
27/08:00pm 10.4 6.0 6.4 76 1.9 S 19 24 10 13 - - 0.6
27/07:30pm 10.8 6.5 6.9 77 1.9 SSW 19 26 10 14 - - 0.6
27/07:00pm 11.5 6.6 6.8 73 2.3 SSW 22 33 12 18 - - 0.6
27/06:30pm 13.0 8.2 7.2 68 2.9 SSW 22 30 12 16 - - 0.6
27/06:00pm 12.4 5.7 7.5 72 2.4 WSW 32 39 17 21 - - 0.6
27/05:30pm 15.0 8.8 7.8 62 3.7 SW 30 39 16 21 - - 0.6
27/05:00pm 15.2 9.3 7.5 60 3.9 WSW 28 37 15 20 - - 0.6
27/04:30pm 15.0 9.2 6.3 56 4.3 WSW 26 35 14 19 - - 0.6
27/04:07pm 15.5 9.3 8.0 61 3.8 WSW 30 48 16 26 - - 0.6
27/04:00pm 14.9 9.0 7.5 61 3.7 SW 28 39 15 21 - - 0.6
27/03:30pm 14.3 8.6 6.9 61 3.7 WSW 26 35 14 19 - - 0.4
27/03:00pm 14.7 9.5 7.3 61 3.7 WSW 24 35 13 19 - - 0.4
27/02:30pm 14.7 10.5 7.5 62 3.6 WSW 19 30 10 16 - - 0.4
27/02:00pm 11.7 8.2 8.6 81 1.6 W 17 22 9 12 - - 0.4
27/01:30pm 11.3 7.1 7.6 78 1.8 W 19 35 10 19 - - 0.2
27/01:00pm 11.0 7.6 9.1 88 1.0 SW 17 24 9 13 - - 0.2
27/12:30pm 12.9 8.9 8.2 73 2.4 WSW 19 28 10 15 - - 0.0
27/12:00pm 10.9 5.2 6.6 75 2.1 WNW 26 35 14 19 - - 0.0
27/11:30am 12.0 8.3 6.3 68 2.8 WSW 15 19 8 10 - - 0.0
27/11:00am 12.9 9.6 8.0 72 2.5 WNW 15 24 8 13 - - 0.0
27/10:30am 11.0 6.8 5.5 69 2.6 W 17 26 9 14 - - 0.0
27/10:00am 11.2 7.1 7.9 80 1.6 WNW 19 28 10 15 - - 0.0
27/09:30am 9.8 6.4 7.6 86 1.1 NW 15 24 8 13 - - 0.0
27/09:00am 9.5 6.7 8.6 94 0.4 WNW 13 15 7 8 - - 0.6
27/08:30am 9.3 6.0 6.4 82 1.4 W 13 22 7 12 - - 0.2
27/08:00am 9.2 5.1 6.3 82 1.4 NW 17 19 9 10 - - 0.2
27/07:30am 8.9 6.8 6.7 86 1.0 WNW 7 11 4 6 - - 0.2
27/07:00am 8.5 6.5 6.1 85 1.1 W 6 7 3 4 - - 0.2
27/06:30am 8.2 5.6 6.3 88 0.9 NW 9 11 5 6 - - 0.2
27/06:00am 8.1 6.8 6.1 87 0.9 W 2 6 1 3 - - 0.2
27/05:30am 8.0 5.1 6.6 91 0.7 NNW 11 15 6 8 - - 0.2
27/05:00am 7.9 6.6 6.0 88 0.9 NNW 2 9 1 5 - - 0.2
27/04:30am 7.6 6.2 5.7 88 0.9 WSW 2 6 1 3 - - 0.2
27/04:00am 7.1 4.0 5.4 89 0.8 NNW 11 15 6 8 - - 0.2
27/03:30am 7.4 4.6 5.0 85 1.1 NW 9 13 5 7 - - 0.2
27/03:00am 7.5 5.4 5.6 88 0.9 S 6 9 3 5 - - 0.2
27/02:30am 8.1 5.0 5.7 85 1.1 NW 11 22 6 12 - - 0.2
27/02:00am 8.4 7.5 6.0 85 1.1 CALM 0 6 0 3 - - 0.2
27/01:30am 8.6 6.0 6.1 84 1.2 W 9 13 5 7 - - 0.2
27/01:00am 8.9 5.6 6.5 85 1.1 NW 13 15 7 8 - - 0.2
27/12:30am 9.0 5.3 6.4 84 1.2 NW 15 19 8 10 - - 0.2
27/12:00am 8.7 4.7 6.5 86 1.0 NW 17 20 9 11 - - 0.2
 
Date/Time
EDT
Temp
°C
App
Temp
°C
Dew
Point
Rel
Hum
%
Delta-T
°C
Wind Press
QNH
hPa
Press
MSL
hPa
Rain
since 9 am
mm
Dir
 
Spd
km/h
Gust
km/h
Spd
kts
Gust
kts
26/11:30pm 8.0 4.2 6.0 87 0.9 NW 15 20 8 11 - - 0.2
26/11:00pm 8.1 4.2 5.4 83 1.2 NW 15 20 8 11 - - 0.2
26/10:30pm 8.7 4.8 5.3 79 1.6 WNW 15 26 8 14 - - 0.2
26/10:00pm 8.7 3.0 5.1 78 1.6 W 24 30 13 16 - - 0.2
26/09:30pm 8.8 3.5 4.8 76 1.8 WNW 22 32 12 17 - - 0.2
26/09:00pm 9.2 3.9 4.8 74 2.0 WNW 22 26 12 14 - - 0.2
26/08:30pm 9.4 4.4 4.8 73 2.1 W 20 26 11 14 - - 0.2
26/08:00pm 10.1 4.0 4.9 70 2.4 W 26 33 14 18 - - 0.2
26/07:30pm 11.1 5.0 5.0 66 2.8 WNW 26 33 14 18 - - 0.2
26/07:00pm 12.0 6.4 5.6 65 3.0 WNW 24 30 13 16 - - 0.2
26/06:30pm 12.5 7.5 6.5 67 2.9 NW 22 28 12 15 - - 0.2
26/06:00pm 11.5 4.9 6.0 69 2.6 WNW 30 39 16 21 - - 0.2
26/05:30pm 12.1 4.9 5.7 65 3.1 WNW 33 41 18 22 - - 0.2
26/05:00pm 13.9 6.1 6.7 62 3.6 WNW 37 46 20 25 - - 0.2
26/04:30pm 13.7 7.6 9.7 77 2.1 NW 32 41 17 22 - - 0.2
26/04:00pm 12.7 5.8 6.3 65 3.1 W 32 37 17 20 - - 0.2
26/03:30pm 12.2 4.6 6.0 66 3.0 WNW 35 44 19 24 - - 0.2
26/03:21pm 13.4 5.9 6.5 63 3.4 WNW 35 50 19 27 - - 0.2
26/03:00pm 11.9 4.9 6.8 71 2.5 W 33 44 18 24 - - 0.2
26/02:30pm 11.7 4.8 6.4 70 2.6 W 32 41 17 22 - - 0.2
26/02:00pm 11.1 4.1 5.8 70 2.5 W 32 39 17 21 - - 0.2
26/01:30pm 14.3 7.0 7.1 62 3.6 WNW 35 50 19 27 - - 0.2
26/01:00pm 13.2 4.2 4.4 55 4.1 WNW 41 56 22 30 - - 0.2
26/12:30pm 11.5 1.8 4.0 60 3.4 WNW 44 54 24 29 - - 0.2
26/12:00pm 11.9 3.0 4.9 62 3.3 WNW 41 50 22 27 - - 0.2
26/11:30am 13.0 6.8 10.0 82 1.6 NW 33 44 18 24 - - 0.2
26/11:00am 9.6 2.5 5.4 75 2.0 WNW 32 43 17 23 - - 0.2
26/10:30am 9.5 3.7 6.4 81 1.5 WNW 26 33 14 18 - - 0.2
26/10:00am 9.0 3.1 7.3 89 0.8 WNW 28 35 15 19 - - 0.2
26/09:30am 8.6 2.7 7.5 93 0.5 WNW 28 33 15 18 - - 0.0
26/09:00am 9.0 2.9 8.1 94 0.4 NW 30 37 16 20 - - 10.4
26/08:51am 8.1 0.4 6.9 92 0.6 NW 37 43 20 23 - - 10.4
26/08:30am 8.3 3.6 5.9 85 1.1 W 20 28 11 15 - - 10.4
26/08:00am 7.7 1.4 5.7 87 0.9 WNW 28 35 15 19 - - 10.4
26/07:30am 6.9 0.1 5.2 89 0.8 WNW 30 37 16 20 - - 10.4
26/07:00am 6.8 -0.5 5.6 92 0.5 WNW 33 44 18 24 - - 10.4
26/06:51am 7.0 0.7 5.6 91 0.6 WNW 28 46 15 25 - - 10.4
26/06:30am 6.4 -0.8 5.2 92 0.5 WNW 32 37 17 20 - - 10.4
26/06:00am 6.4 -1.0 5.0 91 0.6 W 33 54 18 29 - - 10.0
26/05:55am 6.2 -1.0 5.2 93 0.4 W 32 48 17 26 - - 9.8
26/05:30am 6.2 -1.3 4.5 89 0.8 WNW 33 41 18 22 - - 9.6
26/05:00am 6.2 -2.3 5.2 93 0.4 WNW 39 46 21 25 - - 9.4
26/04:30am 6.4 -0.3 5.4 93 0.5 WNW 30 35 16 19 - - 9.0
26/04:00am 6.6 -0.6 5.1 90 0.7 WNW 32 43 17 23 - - 8.2
26/03:30am 6.4 -1.0 5.2 92 0.5 WNW 33 43 18 23 - - 8.2
26/03:00am 6.3 -0.1 5.1 92 0.5 WNW 28 37 15 20 - - 7.6
26/02:30am 6.9 -0.8 5.2 89 0.8 WNW 35 46 19 25 - - 6.6
26/02:00am 6.7 -0.4 5.7 93 0.5 NW 32 41 17 22 - - 6.6
26/01:30am 6.4 -2.0 5.8 96 0.3 NW 39 44 21 24 - - 6.6
26/01:00am 6.3 -2.1 5.7 96 0.3 NW 39 48 21 26 - - 6.6
26/12:30am 6.0 -2.6 4.8 92 0.5 WNW 39 44 21 24 - - 6.6
26/12:00am 6.2 -1.6 5.0 92 0.5 WNW 35 44 19 24 - - 6.6
 
Date/Time
EDT
Temp
°C
App
Temp
°C
Dew
Point
Rel
Hum
%
Delta-T
°C
Wind Press
QNH
hPa
Press
MSL
hPa
Rain
since 9 am
mm
Dir
 
Spd
km/h
Gust
km/h
Spd
kts
Gust
kts
25/11:30pm 6.4 -1.8 4.7 89 0.8 WNW 37 46 20 25 - - 6.4
25/11:00pm 6.3 -0.1 5.1 92 0.5 WNW 28 48 15 26 - - 6.4
25/10:30pm 6.4 0.3 5.0 91 0.6 W 26 37 14 20 - - 6.0
25/10:00pm 5.9 -1.6 4.4 90 0.7 WNW 33 44 18 24 - - 6.0
25/09:59pm 5.9 -2.0 4.4 90 0.7 WNW 35 48 19 26 - - 6.0
25/09:34pm 6.9 -1.1 5.7 92 0.5 NW 37 59 20 32 - - 5.2
25/09:30pm 6.7 -1.7 5.7 93 0.5 NW 39 48 21 26 - - 5.2
25/09:00pm 6.4 -1.4 4.9 90 0.7 WNW 35 44 19 24 - - 5.2
25/08:30pm 6.5 -1.7 4.8 89 0.8 WNW 37 43 20 23 - - 5.2

Other Formats:

Comma delimited format used in spreadsheet applications
http://www.bom.gov.au/fwo/IDT60801/IDT60801.95958.axf

JavaScript Object Notation format (JSON) in row-major order
http://www.bom.gov.au/fwo/IDT60801/IDT60801.95958.json